Time;durP1;ratioP1;P1;durP2;ratioP2;P2;SDS_P1;SDS_P2;PMS_P1;PMS_P2;Temp;Humidity;BMP_temperature;BMP_pressure;BME280_temperature;BME280_humidity;BME280_pressure;Samples;Min_cycle;Max_cycle;Signal;HPM_P1;HPM_P2
2022/03/25 00:02:16;;;;;;;23.77;11.77;;;;;;;6.91;43.25;102232.34;5037891;28;20142;-86
2022/03/25 00:04:43;;;;;;;26.77;12.57;;;;;;;6.91;43.19;102237.56;5065443;28;20044;-86
2022/03/25 00:07:10;;;;;;;21.02;11.77;;;;;;;6.89;43.52;102232.31;5011557;28;20051;-86
2022/03/25 00:09:39;;;;;;;18.88;11.27;;;;;;;6.86;43.75;102240.03;5038890;28;20048;-88
2022/03/25 00:12:08;;;;;;;22.05;11.95;;;;;;;6.82;43.78;102232.97;5029759;28;20059;-87
2022/03/25 00:14:35;;;;;;;22.85;11.63;;;;;;;6.81;43.69;102228.59;5044103;28;20702;-87
2022/03/25 00:17:09;;;;;;;17.88;10.93;;;;;;;6.78;43.89;102236.31;5050254;28;20049;-87
2022/03/25 00:19:36;;;;;;;20.60;11.10;;;;;;;6.75;44.30;102233.59;5061420;28;20124;-85
2022/03/25 00:22:13;;;;;;;19.65;11.93;;;;;;;6.74;44.11;102237.03;5030412;28;20059;-87
2022/03/25 00:24:40;;;;;;;22.13;10.77;;;;;;;6.71;44.43;102227.41;5028400;28;21467;-86
2022/03/25 00:27:08;;;;;;;22.88;11.82;;;;;;;6.70;44.44;102229.97;5045000;28;20041;-86
2022/03/25 00:29:36;;;;;;;20.92;12.30;;;;;;;6.65;44.76;102213.31;5063836;28;20052;-85
2022/03/25 00:32:03;;;;;;;26.88;13.90;;;;;;;6.64;44.99;102230.66;5063113;28;20052;-86
2022/03/25 00:34:31;;;;;;;25.63;13.35;;;;;;;6.60;45.42;102221.84;5046213;28;20052;-85
2022/03/25 00:37:00;;;;;;;19.88;12.15;;;;;;;6.58;45.24;102217.44;5048499;28;20067;-87
2022/03/25 00:45:09;;;;;;;21.67;11.60;;;;;;;6.49;45.91;102214.53;5072745;28;20059;-86
2022/03/25 00:47:36;;;;;;;19.30;11.65;;;;;;;6.47;45.65;102222.28;5063917;28;20394;-87
2022/03/25 00:52:48;;;;;;;23.95;12.45;;;;;;;6.42;45.82;102216.06;5050432;28;20458;-85
2022/03/25 00:55:15;;;;;;;18.75;10.38;;;;;;;6.39;46.14;102219.44;5076599;28;20059;-86
2022/03/25 00:57:43;;;;;;;15.60;10.45;;;;;;;6.38;45.97;102219.41;5070351;28;20084;-87
2022/03/25 01:00:12;;;;;;;20.80;10.20;;;;;;;6.35;46.23;102214.06;5050609;28;20045;-86
2022/03/25 01:02:40;;;;;;;18.95;11.93;;;;;;;6.32;46.32;102216.56;5054958;28;20414;-86
2022/03/25 01:05:08;;;;;;;19.40;11.68;;;;;;;6.28;46.42;102208.69;5053192;28;20069;-86
2022/03/25 01:07:36;;;;;;;19.50;10.93;;;;;;;6.24;47.02;102221.50;5075827;28;20104;-86
2022/03/25 01:10:04;;;;;;;21.98;11.23;;;;;;;6.25;46.67;102218.97;5062818;28;20056;-87
2022/03/25 01:12:30;;;;;;;27.63;11.73;;;;;;;6.22;47.28;102212.75;5079014;28;20051;-86
2022/03/25 01:14:57;;;;;;;25.63;12.13;;;;;;;6.17;47.00;102214.34;5071168;28;20047;-86
2022/03/25 01:17:24;;;;;;;18.30;10.90;;;;;;;6.11;47.06;102213.31;5064880;28;20081;-85
2022/03/25 01:19:59;;;;;;;21.80;10.73;;;;;;;6.06;47.30;102212.25;5061049;28;20134;-85
2022/03/25 01:22:30;;;;;;;24.38;11.13;;;;;;;6.03;47.83;102206.06;5053225;28;20040;-87
2022/03/25 01:24:59;;;;;;;21.65;11.18;;;;;;;6.04;48.04;102202.66;5079069;28;20024;-86
2022/03/25 01:27:26;;;;;;;22.63;10.73;;;;;;;6.03;48.11;102213.88;5073627;28;20047;-87
2022/03/25 01:29:54;;;;;;;18.55;10.95;;;;;;;6.05;48.24;102217.38;5093480;28;20742;-87
2022/03/25 01:32:23;;;;;;;17.75;11.60;;;;;;;6.01;48.31;102213.81;5076566;28;20130;-86
2022/03/25 01:34:50;;;;;;;24.15;12.75;;;;;;;5.99;48.34;102209.41;5053961;28;20097;-87
2022/03/25 01:37:19;;;;;;;30.05;13.27;;;;;;;5.94;48.90;102206.59;5054719;28;20537;-85
2022/03/25 01:39:46;;;;;;;19.30;11.82;;;;;;;5.88;48.77;102199.47;5066839;28;20040;-86
2022/03/25 01:42:15;;;;;;;25.95;12.35;;;;;;;5.86;48.76;102205.44;5050447;28;20058;-85
2022/03/25 01:44:42;;;;;;;19.58;11.70;;;;;;;5.81;49.19;102210.47;5071292;28;20102;-89
2022/03/25 01:47:16;;;;;;;30.88;12.23;;;;;;;5.76;49.56;102210.31;5056360;28;20055;-85
2022/03/25 01:49:43;;;;;;;26.92;14.15;;;;;;;5.72;49.94;102210.13;5069444;28;20102;-85
2022/03/25 01:52:11;;;;;;;24.27;13.90;;;;;;;5.66;51.10;102207.31;5080761;28;20036;-86
2022/03/25 01:54:37;;;;;;;25.02;11.90;;;;;;;5.64;51.43;102217.66;5068092;28;20064;-86
2022/03/25 01:57:08;;;;;;;25.20;12.48;;;;;;;5.60;51.66;102213.16;5048925;28;20044;-85
2022/03/25 01:59:35;;;;;;;24.70;13.32;;;;;;;5.57;51.81;102216.53;5059073;28;20079;-86
2022/03/25 02:02:05;;;;;;;21.33;11.85;;;;;;;5.53;51.61;102209.47;5058576;28;20049;-86
2022/03/25 02:04:32;;;;;;;25.13;13.48;;;;;;;5.52;52.27;102218.09;5039466;28;20079;-87
2022/03/25 02:07:01;;;;;;;22.70;13.55;;;;;;;5.50;52.20;102222.34;5050298;28;20538;-87
2022/03/25 02:09:31;;;;;;;20.75;12.45;;;;;;;5.47;52.88;102219.63;5059864;28;20147;-87
2022/03/25 02:11:59;;;;;;;20.10;12.63;;;;;;;5.43;53.31;102220.34;5063722;28;20052;-87
2022/03/25 02:14:26;;;;;;;23.13;12.70;;;;;;;5.37;53.52;102222.69;5060555;28;20134;-87
2022/03/25 02:16:53;;;;;;;25.52;12.43;;;;;;;5.32;53.81;102219.94;5053326;28;20067;-85
2022/03/25 02:19:25;;;;;;;28.00;13.15;;;;;;;5.27;53.86;102218.88;5051746;28;20501;-86
2022/03/25 02:21:52;;;;;;;21.23;11.55;;;;;;;5.23;54.10;102210.09;5069533;28;20482;-87
2022/03/25 02:24:26;;;;;;;25.15;11.65;;;;;;;5.20;54.00;102215.19;5045966;28;20052;-86
2022/03/25 02:26:56;;;;;;;25.45;13.55;;;;;;;5.16;54.78;102212.38;5069828;28;20040;-86
2022/03/25 02:29:24;;;;;;;26.50;12.77;;;;;;;5.13;55.03;102219.22;5067203;28;20055;-87
2022/03/25 02:31:50;;;;;;;20.08;11.88;;;;;;;5.13;55.28;102223.53;5068859;28;20040;-86
2022/03/25 02:34:19;;;;;;;26.50;12.57;;;;;;;5.07;54.87;102216.41;5066632;28;20056;-85
2022/03/25 02:36:48;;;;;;;23.00;12.23;;;;;;;5.03;55.54;102222.31;5052877;28;20184;-86
2022/03/25 02:39:17;;;;;;;21.13;12.23;;;;;;;5.00;55.55;102218.72;5056574;28;20094;-87
2022/03/25 02:41:44;;;;;;;23.50;12.00;;;;;;;4.97;55.95;102217.75;5086047;28;20430;-87
2022/03/25 02:44:12;;;;;;;24.75;12.25;;;;;;;4.95;56.25;102219.41;5063743;28;20474;-86
2022/03/25 02:46:39;;;;;;;30.00;13.30;;;;;;;4.94;56.12;102216.72;5052576;28;20044;-86
2022/03/25 02:49:14;;;;;;;23.05;12.63;;;;;;;4.93;56.13;102220.19;5053749;28;20489;-86
2022/03/25 02:51:47;;;;;;;28.13;13.30;;;;;;;4.93;56.02;102215.00;5068246;28;20080;-85
2022/03/25 02:54:14;;;;;;;21.00;12.18;;;;;;;4.95;55.84;102226.28;5051963;28;20058;-86
2022/03/25 02:56:49;;;;;;;23.42;11.30;;;;;;;4.94;56.03;102216.72;5070171;28;20068;-86
2022/03/25 02:59:17;;;;;;;20.48;12.65;;;;;;;4.90;56.25;102223.53;5055766;28;20168;-86
2022/03/25 03:01:44;;;;;;;21.88;12.10;;;;;;;4.90;56.16;102227.81;5046949;28;20052;-86
2022/03/25 03:04:11;;;;;;;24.30;13.15;;;;;;;4.87;56.75;102226.00;5067625;28;20155;-86
2022/03/25 03:06:40;;;;;;;23.55;12.40;;;;;;;4.86;56.81;102229.41;5052373;28;20753;-86
2022/03/25 03:09:07;;;;;;;22.77;12.45;;;;;;;4.86;56.57;102231.13;5091604;28;20055;-87
2022/03/25 03:11:38;;;;;;;28.63;14.68;;;;;;;4.83;56.39;102237.06;5087368;28;20114;-87
2022/03/25 03:14:08;;;;;;;21.80;11.68;;;;;;;4.79;56.31;102232.59;5068274;28;20368;-86
2022/03/25 03:16:37;;;;;;;22.85;12.45;;;;;;;4.75;56.70;102233.31;5087643;28;20028;-86
2022/03/25 03:19:07;;;;;;;25.25;14.23;;;;;;;4.72;57.05;102238.34;5059316;28;20052;-86
2022/03/25 03:21:34;;;;;;;25.35;12.45;;;;;;;4.74;57.46;102234.13;5075648;28;20103;-86
2022/03/25 03:24:04;;;;;;;23.02;12.07;;;;;;;4.72;56.99;102227.97;5071224;28;20060;-86
2022/03/25 03:26:31;;;;;;;19.27;12.60;;;;;;;4.69;57.78;102231.31;5069704;28;20404;-86
2022/03/25 03:29:03;;;;;;;21.27;11.82;;;;;;;4.70;57.42;102234.81;5075468;28;20049;-85
2022/03/25 03:31:30;;;;;;;20.05;12.27;;;;;;;4.71;57.41;102234.00;5072931;28;20074;-87
2022/03/25 03:34:05;;;;;;;24.00;12.65;;;;;;;4.72;57.68;102235.75;5063572;28;20044;-86
2022/03/25 03:36:32;;;;;;;22.60;10.98;;;;;;;4.71;57.49;102236.59;5069847;28;20048;-87
2022/03/25 03:39:00;;;;;;;22.00;11.63;;;;;;;4.70;57.69;102227.91;5072934;28;20055;-86
2022/03/25 03:41:31;;;;;;;26.30;13.15;;;;;;;4.71;57.24;102229.69;5058530;28;20047;-87
2022/03/25 03:44:00;;;;;;;21.88;12.32;;;;;;;4.70;57.36;102227.03;5081032;28;20032;-87
2022/03/25 03:46:28;;;;;;;20.85;12.57;;;;;;;4.67;57.70;102234.66;5107200;28;20044;-86
2022/03/25 03:48:55;;;;;;;20.83;11.38;;;;;;;4.63;57.57;102229.38;5073289;28;20028;-85
2022/03/25 03:51:22;;;;;;;20.55;11.73;;;;;;;4.58;58.44;102227.44;5076062;28;20075;-86
2022/03/25 03:53:56;;;;;;;23.33;12.10;;;;;;;4.57;58.49;102225.66;5071851;28;20040;-86
2022/03/25 03:56:23;;;;;;;26.00;12.07;;;;;;;4.52;58.63;102224.56;5075571;28;20061;-87
2022/03/25 03:58:50;;;;;;;23.95;11.38;;;;;;;4.52;58.41;102234.94;5096588;28;20048;-85
2022/03/25 04:01:18;;;;;;;30.52;14.20;;;;;;;4.49;59.18;102229.63;5070314;28;20044;-87
2022/03/25 04:03:45;;;;;;;21.25;13.27;;;;;;;4.43;59.30;102233.75;5075501;28;20211;-87
2022/03/25 04:06:14;;;;;;;27.48;13.90;;;;;;;4.43;59.39;102227.66;5075382;28;20055;-86
2022/03/25 04:08:45;;;;;;;24.58;13.10;;;;;;;4.40;59.68;102231.00;5041469;28;20116;-87
2022/03/25 04:11:13;;;;;;;26.75;13.43;;;;;;;4.37;59.45;102242.94;5073299;28;20497;-86
2022/03/25 04:13:48;;;;;;;21.75;11.70;;;;;;;4.32;59.69;102240.19;5052700;28;20073;-86
2022/03/25 04:16:19;;;;;;;24.73;13.30;;;;;;;4.29;59.98;102224.50;5066023;28;20051;-86
2022/03/25 04:18:46;;;;;;;25.40;12.50;;;;;;;4.25;60.16;102231.25;5051813;28;20141;-86
2022/03/25 04:21:13;;;;;;;28.02;13.75;;;;;;;4.21;60.60;102231.06;5052740;28;20498;-86
2022/03/25 04:23:41;;;;;;;21.90;12.70;;;;;;;4.16;61.52;102237.75;5066381;28;20142;-87
2022/03/25 04:26:08;;;;;;;23.92;12.65;;;;;;;4.12;61.60;102236.75;5057577;28;20043;-85
2022/03/25 04:28:37;;;;;;;22.42;13.90;;;;;;;4.08;61.80;102242.59;5056485;28;20101;-87
2022/03/25 04:31:07;;;;;;;21.80;11.65;;;;;;;4.07;62.26;102244.31;5070577;28;20073;-86
2022/03/25 04:33:42;;;;;;;24.55;11.77;;;;;;;4.04;61.87;102244.19;5062769;28;20184;-88
2022/03/25 04:36:09;;;;;;;;;;;;;;;4.01;63.20;102253.53;5051274;28;20506;-88
2022/03/25 04:38:36;;;;;;;25.55;12.95;;;;;;;3.97;63.32;102253.38;5066540;28;19955;-86
2022/03/25 04:41:06;;;;;;;27.15;12.50;;;;;;;3.96;63.52;102251.63;5068761;28;20049;-86
2022/03/25 04:43:36;;;;;;;27.38;14.10;;;;;;;3.92;63.95;102246.22;5064119;28;20337;-89
2022/03/25 04:46:06;;;;;;;29.17;13.68;;;;;;;3.89;63.54;102251.28;5071596;28;20055;-84
2022/03/25 04:48:37;;;;;;;23.67;13.80;;;;;;;3.91;64.03;102247.03;5061702;28;20044;-85
2022/03/25 04:51:05;;;;;;;28.13;15.43;;;;;;;3.87;64.18;102250.31;5062907;28;20105;-86
2022/03/25 04:53:34;;;;;;;25.60;13.38;;;;;;;3.84;63.81;102243.31;5053348;28;20055;-86
2022/03/25 04:56:04;;;;;;;27.85;14.65;;;;;;;3.79;64.43;102253.47;5067353;28;20044;-86
2022/03/25 04:58:31;;;;;;;24.92;13.15;;;;;;;3.77;64.59;102249.03;5058593;28;20055;-87
2022/03/25 05:01:10;;;;;;;34.10;13.80;;;;;;;3.72;64.93;102247.94;5065283;28;20051;-87
2022/03/25 05:04:04;;;;;;;31.85;14.20;;;;;;;3.70;65.14;102247.84;5085314;28;20067;-87
2022/03/25 05:06:36;;;;;;;27.55;13.75;;;;;;;3.69;65.38;102240.03;5061176;28;20062;-85
2022/03/25 05:09:06;;;;;;;27.55;14.52;;;;;;;3.70;64.73;102255.63;5075718;28;20043;-87
2022/03/25 05:11:53;;;;;;;25.15;12.98;;;;;;;3.69;65.59;102250.38;5064740;27;1191197;-84
2022/03/25 05:14:20;;;;;;;20.45;11.32;;;;;;;3.68;64.96;102256.38;5071651;28;20043;-84
2022/03/25 05:16:52;;;;;;;18.98;11.15;;;;;;;3.67;64.85;102254.63;5088041;28;20120;-84
2022/03/25 05:19:20;;;;;;;25.30;10.98;;;;;;;3.67;64.83;102254.63;5074629;28;20043;-84
2022/03/25 05:21:46;;;;;;;20.23;11.50;;;;;;;3.68;64.62;102258.97;5067724;28;20146;-84
2022/03/25 05:24:13;;;;;;;26.55;12.82;;;;;;;3.67;64.62;102262.41;5067906;28;20044;-84
2022/03/25 05:26:40;;;;;;;26.35;12.82;;;;;;;3.64;64.57;102253.66;5066777;28;20056;-84
2022/03/25 05:29:07;;;;;;;26.75;11.38;;;;;;;3.66;65.10;102258.91;5084001;28;20562;-84
2022/03/25 05:31:36;;;;;;;25.10;14.05;;;;;;;3.66;65.09;102255.44;5088082;28;20087;-85
2022/03/25 05:34:04;;;;;;;25.33;11.25;;;;;;;3.67;65.77;102258.09;5091753;28;20067;-84
2022/03/25 05:36:32;;;;;;;30.33;12.80;;;;;;;3.70;65.20;102260.81;5066573;28;20040;-83
2022/03/25 05:39:00;;;;;;;21.55;11.82;;;;;;;3.74;65.50;102265.34;5081560;28;20162;-84
2022/03/25 05:41:28;;;;;;;29.70;13.95;;;;;;;3.78;65.53;102261.16;5090727;28;20055;-84
2022/03/25 05:43:55;;;;;;;22.23;13.57;;;;;;;3.78;65.39;102262.06;5079101;28;20043;-84
2022/03/25 05:46:22;;;;;;;28.27;14.60;;;;;;;3.83;64.91;102264.84;5086019;28;21560;-84
2022/03/25 05:48:49;;;;;;;26.20;13.48;;;;;;;3.87;65.15;102278.81;5085994;28;20046;-84
2022/03/25 05:51:16;;;;;;;26.98;13.38;;;;;;;3.87;65.22;102274.53;5075693;28;20653;-84
2022/03/25 05:53:43;;;;;;;23.42;12.88;;;;;;;3.90;64.72;102281.56;5083647;28;20067;-84
2022/03/25 05:56:11;;;;;;;22.50;12.40;;;;;;;3.92;64.82;102274.72;5083584;28;20059;-83
2022/03/25 05:58:40;;;;;;;30.33;12.32;;;;;;;3.96;64.58;102281.81;5085903;28;20051;-85
2022/03/25 06:01:08;;;;;;;23.48;12.38;;;;;;;4.00;64.83;102285.44;5088434;28;20031;-84
2022/03/25 06:03:35;;;;;;;24.00;14.07;;;;;;;4.06;64.65;102283.13;5073335;28;20051;-84
2022/03/25 06:06:05;;;;;;;29.63;12.48;;;;;;;4.13;64.18;102290.34;5081811;28;20035;-84
2022/03/25 06:08:31;;;;;;;19.58;11.45;;;;;;;4.21;63.32;102285.50;5074873;28;20051;-85
2022/03/25 06:10:59;;;;;;;25.15;12.07;;;;;;;4.26;63.00;102287.47;5086367;28;20077;-84
2022/03/25 06:13:27;;;;;;;22.65;11.88;;;;;;;4.33;63.14;102285.13;5072053;28;20054;-85
2022/03/25 06:15:54;;;;;;;27.88;13.57;;;;;;;4.42;63.12;102290.69;5071995;28;20047;-84
2022/03/25 06:18:21;;;;;;;21.65;11.23;;;;;;;4.51;62.33;102293.72;5075936;28;20047;-84
2022/03/25 06:20:48;;;;;;;18.17;10.77;;;;;;;4.63;62.11;102299.41;5069988;28;20043;-84
2022/03/25 06:23:15;;;;;;;29.85;11.70;;;;;;;4.77;61.26;102300.00;5060071;28;20044;-84
2022/03/25 06:25:42;;;;;;;21.13;11.68;;;;;;;4.95;60.31;102302.47;5073712;28;20051;-84
2022/03/25 06:28:09;;;;;;;19.80;9.93;;;;;;;5.17;59.95;102302.44;5058365;28;20145;-85
2022/03/25 06:30:39;;;;;;;23.92;10.93;;;;;;;5.35;59.48;102303.16;5055822;28;20181;-84
2022/03/25 06:33:10;;;;;;;18.73;10.43;;;;;;;5.60;58.49;102298.91;5072116;28;20351;-84
2022/03/25 06:35:39;;;;;;;26.00;10.93;;;;;;;5.84;58.02;102303.25;5062887;28;20055;-85
2022/03/25 06:38:07;;;;;;;18.08;10.98;;;;;;;6.02;57.49;102298.75;5068797;28;20097;-85
2022/03/25 06:40:34;;;;;;;21.70;11.40;;;;;;;6.25;56.85;102306.50;5093255;28;20432;-85
2022/03/25 06:43:01;;;;;;;22.50;10.77;;;;;;;6.49;56.01;102303.00;5078422;28;20062;-85
2022/03/25 06:45:28;;;;;;;20.45;11.32;;;;;;;6.74;55.26;102305.59;5075290;28;20056;-85
2022/03/25 06:47:55;;;;;;;19.73;10.70;;;;;;;6.98;54.59;102309.84;5066889;28;20130;-85
2022/03/25 06:50:24;;;;;;;18.65;11.00;;;;;;;7.23;53.97;102303.69;5074733;28;20037;-84
2022/03/25 06:52:51;;;;;;;24.48;10.57;;;;;;;7.52;53.10;102300.22;5073786;28;20504;-85
2022/03/25 06:55:19;;;;;;;20.63;11.13;;;;;;;7.81;52.39;102308.00;5062864;28;20047;-84
2022/03/25 06:57:49;;;;;;;26.00;12.55;;;;;;;8.11;51.66;102316.72;5080820;28;20119;-84
2022/03/25 07:00:17;;;;;;;21.00;11.80;;;;;;;8.40;50.44;102305.31;5068558;28;20386;-84
2022/03/25 07:02:44;;;;;;;29.05;12.80;;;;;;;8.67;49.84;102312.13;5081090;28;20565;-84
2022/03/25 07:05:13;;;;;;;22.27;12.55;;;;;;;8.90;49.00;102313.59;5080112;28;20039;-84
2022/03/25 07:07:42;;;;;;;27.77;12.27;;;;;;;9.18;48.12;102311.66;5081218;28;20596;-83
2022/03/25 07:10:11;;;;;;;29.95;12.15;;;;;;;9.46;47.23;102316.63;5071313;28;20313;-84
2022/03/25 07:12:43;;;;;;;24.02;12.48;;;;;;;9.73;46.56;102311.97;5071627;28;20105;-84
2022/03/25 07:15:12;;;;;;;23.17;12.00;;;;;;;9.98;45.10;102309.88;5073923;28;20442;-84
2022/03/25 07:17:45;;;;;;;29.45;12.20;;;;;;;10.16;44.53;102314.59;5084913;28;20079;-84
2022/03/25 07:20:15;;;;;;;36.25;13.85;;;;;;;10.32;44.11;102320.13;5089149;28;20462;-83
2022/03/25 07:22:49;;;;;;;24.77;13.10;;;;;;;10.51;43.50;102318.78;5066846;28;20048;-85
2022/03/25 07:25:18;;;;;;;27.00;13.10;;;;;;;10.75;43.20;102327.06;5082015;28;20137;-84
2022/03/25 07:27:47;;;;;;;30.27;13.13;;;;;;;10.99;42.92;102333.56;5075695;28;20112;-84
2022/03/25 07:30:16;;;;;;;32.75;14.70;;;;;;;11.17;41.84;102330.38;5085913;28;20047;-84
2022/03/25 07:32:43;;;;;;;28.48;13.00;;;;;;;11.34;41.71;102329.72;5087954;28;20046;-84
2022/03/25 07:35:10;;;;;;;19.40;12.60;;;;;;;11.53;40.59;102333.50;5084653;28;20066;-85
2022/03/25 07:37:39;;;;;;;25.17;13.00;;;;;;;11.78;40.19;102334.72;5092801;28;20737;-84
2022/03/25 07:40:09;;;;;;;26.48;13.57;;;;;;;12.09;39.63;102343.00;5074156;28;20074;-84
2022/03/25 07:42:38;;;;;;;21.77;12.23;;;;;;;12.38;39.10;102342.44;5086558;28;20040;-84
2022/03/25 07:45:10;;;;;;;29.98;14.82;;;;;;;12.66;38.00;102345.34;5074591;28;20040;-84
2022/03/25 07:47:48;;;;;;;20.85;12.98;;;;;;;12.94;37.48;102348.25;5076918;28;20047;-84
2022/03/25 07:50:21;;;;;;;26.02;14.02;;;;;;;13.20;37.56;102346.69;5083536;28;20048;-83
2022/03/25 07:52:52;;;;;;;26.10;14.93;;;;;;;13.50;37.14;102347.78;5072480;28;20044;-83
2022/03/25 07:55:20;;;;;;;28.13;12.57;;;;;;;13.83;36.54;102348.84;5059395;28;20181;-85
2022/03/25 07:57:47;;;;;;;27.63;14.40;;;;;;;14.05;35.40;102352.47;5074489;28;20056;-83
2022/03/25 08:00:19;;;;;;;26.38;15.55;;;;;;;14.32;35.65;102353.41;5081804;28;20047;-86
2022/03/25 08:02:57;;;;;;;27.17;14.27;;;;;;;14.75;34.76;102359.69;5077756;28;20112;-83
2022/03/25 08:05:24;;;;;;;25.58;13.00;;;;;;;15.20;34.35;102361.44;5089142;28;20065;-82
2022/03/25 08:08:02;;;;;;;27.77;14.73;;;;;;;15.55;33.09;102365.78;5096095;28;20077;-83
2022/03/25 08:10:31;;;;;;;28.83;14.75;;;;;;;15.71;32.56;102368.41;5083641;28;20058;-84
2022/03/25 08:13:00;;;;;;;29.30;14.23;;;;;;;15.93;32.54;102357.78;5075482;28;20117;-82
2022/03/25 08:15:32;;;;;;;21.23;11.95;;;;;;;16.28;32.20;102367.31;5079414;28;20332;-85
2022/03/25 08:18:07;;;;;;;22.55;14.07;;;;;;;16.66;31.39;102360.88;5108695;28;20101;-84
2022/03/25 08:20:41;;;;;;;26.75;14.43;;;;;;;17.06;30.54;102373.84;5074662;28;20036;-83
2022/03/25 08:23:11;;;;;;;;;;;;;;;17.24;30.39;102366.66;5087612;28;20275;-83
2022/03/25 08:28:28;;;;;;;22.70;14.25;;;;;;;18.04;29.41;102373.72;5027216;28;20354;-84
2022/03/25 08:30:59;;;;;;;20.48;13.43;;;;;;;18.49;28.74;102373.13;5088084;28;20134;-82
2022/03/25 08:33:25;;;;;;;32.70;16.65;;;;;;;18.80;28.20;102377.97;5071818;28;20059;-84
2022/03/25 08:35:52;;;;;;;26.92;15.45;;;;;;;18.98;27.90;102377.69;5077860;28;20048;-82
2022/03/25 08:38:18;;;;;;;29.70;14.40;;;;;;;19.20;27.39;102379.97;5085291;28;20417;-83
2022/03/25 08:40:45;;;;;;;18.42;12.40;;;;;;;19.43;27.20;102391.97;5073537;28;20379;-83
2022/03/25 08:43:12;;;;;;;19.42;13.50;;;;;;;19.60;26.53;102376.59;5074734;28;20107;-84
2022/03/25 08:45:41;;;;;;;17.98;12.77;;;;;;;19.82;26.43;102381.50;5070643;28;20055;-84
2022/03/25 08:48:08;;;;;;;22.85;15.00;;;;;;;20.05;25.77;102377.50;5083780;28;21206;-83
2022/03/25 08:50:35;;;;;;;21.23;13.80;;;;;;;20.17;25.30;102383.44;5075204;28;20113;-83
2022/03/25 08:53:02;;;;;;;24.33;15.00;;;;;;;20.36;25.57;102379.50;5083447;28;20043;-84
2022/03/25 08:55:29;;;;;;;22.35;13.57;;;;;;;20.63;24.88;102376.19;5083489;28;20071;-84
2022/03/25 08:57:57;;;;;;;23.67;14.48;;;;;;;20.85;24.66;102381.03;5081391;28;20159;-84
2022/03/25 09:00:27;;;;;;;20.05;12.75;;;;;;;21.13;23.86;102381.22;5069694;28;20078;-84
2022/03/25 09:02:53;;;;;;;16.52;11.88;;;;;;;21.39;23.56;102384.94;5082946;28;20044;-83
2022/03/25 09:05:20;;;;;;;17.80;12.57;;;;;;;21.74;23.06;102384.94;5071825;28;20744;-83
2022/03/25 09:07:50;;;;;;;21.13;14.40;;;;;;;21.59;22.04;102380.91;5072847;28;20128;-84
2022/03/25 09:10:19;;;;;;;18.70;13.00;;;;;;;21.49;22.26;102383.78;5086611;28;20135;-85
2022/03/25 09:12:46;;;;;;;31.73;13.30;;;;;;;21.37;22.00;102392.13;5085019;28;20035;-84
2022/03/25 09:15:15;;;;;;;21.65;13.27;;;;;;;21.20;22.03;102387.25;5084584;28;20044;-84
2022/03/25 09:17:46;;;;;;;20.27;13.18;;;;;;;21.20;21.83;102389.91;5070321;28;20079;-83
2022/03/25 09:20:14;;;;;;;19.98;14.43;;;;;;;21.22;21.92;102387.22;5074038;28;20143;-84
2022/03/25 09:22:44;;;;;;;18.92;13.10;;;;;;;21.71;21.82;102388.56;5083410;28;20048;-82
2022/03/25 09:25:14;;;;;;;18.95;13.23;;;;;;;22.19;21.04;102383.63;5082465;28;20079;-84
2022/03/25 09:27:44;;;;;;;23.48;14.30;;;;;;;22.49;20.81;102383.63;5069728;28;20058;-84
2022/03/25 09:30:13;;;;;;;18.30;12.45;;;;;;;22.50;20.99;102385.38;5087497;28;20079;-84
2022/03/25 09:32:45;;;;;;;21.73;13.73;;;;;;;22.07;21.17;102391.09;5072264;28;20592;-85
2022/03/25 09:35:13;;;;;;;20.23;13.80;;;;;;;21.18;21.81;102393.53;5067192;28;20101;-83
2022/03/25 09:37:51;;;;;;;22.33;14.52;;;;;;;20.30;22.28;102404.44;5076971;28;21729;-83
2022/03/25 09:40:23;;;;;;;26.33;14.60;;;;;;;19.70;23.33;102403.88;5077184;28;20051;-83
2022/03/25 09:42:52;;;;;;;22.58;15.13;;;;;;;19.47;23.43;102394.53;5076570;28;20048;-85
2022/03/25 09:45:21;;;;;;;23.00;14.30;;;;;;;20.12;22.44;102392.41;5073856;28;20078;-82
2022/03/25 09:47:53;;;;;;;32.38;22.10;;;;;;;20.99;21.83;102386.03;5077127;28;20075;-84
2022/03/25 09:50:23;;;;;;;21.73;13.65;;;;;;;22.04;20.86;102387.66;5059315;28;20043;-84
2022/03/25 09:52:52;;;;;;;23.30;14.02;;;;;;;23.05;20.04;102388.94;5086394;28;20040;-83
2022/03/25 09:55:19;;;;;;;21.05;14.73;;;;;;;23.94;19.36;102390.25;5069416;28;20063;-83
2022/03/25 09:57:50;;;;;;;21.25;14.10;;;;;;;24.59;18.85;102389.56;5077552;28;20047;-84
2022/03/25 10:00:20;;;;;;;22.17;15.43;;;;;;;25.10;17.89;102388.31;5078284;28;20052;-82
2022/03/25 10:02:47;;;;;;;23.00;15.30;;;;;;;25.47;18.45;102385.00;5075994;28;20039;-84
2022/03/25 10:05:19;;;;;;;24.05;16.50;;;;;;;25.74;18.16;102389.13;5064187;28;20058;-83
2022/03/25 10:07:54;;;;;;;20.20;14.40;;;;;;;26.17;17.94;102386.28;5072867;28;20802;-84
2022/03/25 10:10:24;;;;;;;22.00;16.42;;;;;;;26.80;17.86;102387.72;5077100;28;20062;-84
2022/03/25 10:13:00;;;;;;;22.90;17.08;;;;;;;27.08;17.61;102383.66;5076590;28;20121;-83
2022/03/25 10:15:38;;;;;;;19.42;16.38;;;;;;;27.42;17.47;102379.22;5074929;28;20043;-84
2022/03/25 10:18:09;;;;;;;22.48;16.58;;;;;;;27.72;17.39;102379.41;5082616;28;20132;-83
2022/03/25 10:20:39;;;;;;;22.13;16.67;;;;;;;27.83;17.02;102391.41;5071802;28;20290;-82
2022/03/25 10:23:19;;;;;;;21.52;17.55;;;;;;;28.04;17.08;102387.56;5073031;28;20109;-84
2022/03/25 10:26:00;;;;;;;23.85;17.90;;;;;;;28.46;16.49;102389.72;5069138;28;20121;-85
2022/03/25 10:28:30;;;;;;;25.35;18.73;;;;;;;28.71;16.92;102381.97;5064169;28;20059;-83
2022/03/25 10:31:03;;;;;;;26.13;19.20;;;;;;;28.86;16.94;102372.13;5092754;28;20055;-83
2022/03/25 10:33:36;;;;;;;30.38;23.58;;;;;;;29.10;16.62;102378.81;5063323;28;20119;-85
2022/03/25 10:36:08;;;;;;;27.60;22.40;;;;;;;28.70;17.27;102371.28;5065988;28;20066;-82
2022/03/25 10:38:54;;;;;;;23.92;21.40;;;;;;;28.00;17.37;102387.78;5062517;28;20064;-83
2022/03/25 10:41:49;;;;;;;34.30;23.25;;;;;;;27.68;17.84;102387.72;5067605;28;20043;-85
2022/03/25 10:44:17;;;;;;;27.73;23.75;;;;;;;27.43;18.25;102377.41;5068824;28;20100;-84
2022/03/25 10:46:46;;;;;;;30.63;23.67;;;;;;;27.66;18.39;102379.72;5066152;28;20126;-83
2022/03/25 10:49:17;;;;;;;27.45;21.33;;;;;;;28.05;17.69;102373.13;5073933;28;20057;-83
2022/03/25 10:52:05;;;;;;;25.50;21.27;;;;;;;27.81;17.76;102369.97;5063583;28;20040;-83
2022/03/25 10:54:35;;;;;;;29.02;21.15;;;;;;;27.70;18.10;102375.94;5090282;28;20143;-83
2022/03/25 10:57:02;;;;;;;27.77;21.33;;;;;;;28.15;17.58;102367.25;5068455;28;20058;-85
2022/03/25 10:59:34;;;;;;;26.90;18.98;;;;;;;28.49;17.45;102374.25;5076057;28;20048;-83
2022/03/25 11:02:03;;;;;;;30.73;22.15;;;;;;;28.80;16.61;102364.41;5096221;28;20032;-84
2022/03/25 11:04:31;;;;;;;27.83;20.63;;;;;;;28.62;17.52;102362.78;5064277;28;20071;-84
2022/03/25 11:06:58;;;;;;;30.08;22.58;;;;;;;28.62;17.50;102368.16;5067149;28;20118;-84
2022/03/25 11:09:27;;;;;;;29.70;23.48;;;;;;;28.71;17.32;102356.88;5075328;28;20418;-82
2022/03/25 11:11:55;;;;;;;25.42;19.90;;;;;;;28.83;17.56;102358.81;5074446;28;20059;-83
2022/03/25 11:14:23;;;;;;;27.10;21.80;;;;;;;29.46;17.07;102359.53;5057370;28;20043;-85
2022/03/25 11:17:01;;;;;;;23.02;18.77;;;;;;;29.97;16.67;102350.97;5067027;28;20044;-83
2022/03/25 11:19:29;;;;;;;28.58;23.42;;;;;;;30.47;16.51;102359.44;5060466;28;20179;-84
2022/03/25 11:21:57;;;;;;;33.20;23.65;;;;;;;30.87;16.04;102365.81;5073044;28;20048;-84
2022/03/25 11:24:36;;;;;;;28.58;23.02;;;;;;;30.90;16.14;102362.88;5061344;28;20074;-85
2022/03/25 11:27:28;;;;;;;28.17;23.92;;;;;;;30.04;16.22;102356.84;5061960;28;20081;-83
2022/03/25 11:30:02;;;;;;;26.13;21.95;;;;;;;29.98;16.74;102366.19;5062214;28;20035;-82
2022/03/25 11:32:28;;;;;;;25.48;21.48;;;;;;;30.38;16.60;102362.72;5072009;28;20036;-84
2022/03/25 11:34:54;;;;;;;27.25;22.58;;;;;;;31.01;16.25;102360.31;5062111;28;20119;-84
2022/03/25 11:37:33;;;;;;;27.45;21.65;;;;;;;31.21;16.32;102356.25;5078132;28;20044;-82